createdAt,value
2022-12-14T00:01:35.829Z,29.71
2022-12-14T00:06:57.461Z,30.12
2022-12-14T00:12:19.182Z,29.82
2022-12-14T00:17:41.140Z,29.87
2022-12-14T00:23:04.636Z,30.18
2022-12-14T00:28:26.743Z,29.92
2022-12-14T00:33:50.450Z,29.87
2022-12-14T00:39:12.133Z,30.09
2022-12-14T00:44:34.434Z,30.15
2022-12-14T00:49:56.143Z,30.07
2022-12-14T00:55:17.945Z,29.81
2022-12-14T01:00:40.196Z,30.09
2022-12-14T01:06:02.639Z,29.89
2022-12-14T01:11:24.310Z,30.12
2022-12-14T01:16:46.052Z,30.05
2022-12-14T01:22:08.035Z,30.23
2022-12-14T01:27:29.726Z,29.81
2022-12-14T01:32:51.459Z,30.16
2022-12-14T01:38:13.208Z,29.90
2022-12-14T01:43:53.275Z,29.97
2022-12-14T01:49:42.338Z,29.95
2022-12-14T01:55:14.345Z,30.15
2022-12-14T02:00:37.031Z,30.17
2022-12-14T02:06:06.321Z,30.46
2022-12-14T02:11:39.449Z,29.93
2022-12-14T02:17:01.920Z,30.26
2022-12-14T02:22:44.924Z,30.53
2022-12-14T02:28:33.865Z,30.36
2022-12-14T02:34:07.240Z,30.05
2022-12-14T02:39:45.784Z,30.14
2022-12-14T02:45:29.113Z,30.56
2022-12-14T02:51:11.825Z,30.14
2022-12-14T02:56:50.212Z,30.24
2022-12-14T03:02:13.625Z,30.15
2022-12-14T03:07:35.404Z,30.15
2022-12-14T03:13:08.562Z,30.52
2022-12-14T03:18:37.701Z,30.24
2022-12-14T03:24:04.464Z,30.54
2022-12-14T03:29:29.858Z,30.38
2022-12-14T03:35:05.480Z,30.61
2022-12-14T03:40:36.944Z,30.70
2022-12-14T03:46:14.884Z,30.42
2022-12-14T03:52:02.798Z,30.41
2022-12-14T03:57:39.343Z,30.49
2022-12-14T04:03:22.978Z,30.45
2022-12-14T04:08:52.762Z,30.44
2022-12-14T04:14:39.975Z,30.61
2022-12-14T04:20:09.748Z,30.28
2022-12-14T04:25:54.851Z,30.58
2022-12-14T04:31:21.570Z,30.24
2022-12-14T04:36:49.120Z,30.61
2022-12-14T04:42:14.969Z,30.26
2022-12-14T04:47:44.523Z,30.52
2022-12-14T04:53:12.981Z,30.33
2022-12-14T04:58:35.696Z,30.66
2022-12-14T05:04:21.506Z,30.46
2022-12-14T05:10:05.654Z,30.28
2022-12-14T05:15:42.932Z,30.32
2022-12-14T05:21:04.708Z,30.62
2022-12-14T05:26:26.673Z,30.51
2022-12-14T05:31:49.734Z,30.30
2022-12-14T05:37:17.669Z,30.60
2022-12-14T05:42:44.676Z,30.27
2022-12-14T05:48:07.758Z,30.26
2022-12-14T05:53:29.941Z,30.65
2022-12-14T05:58:51.950Z,30.63
2022-12-14T06:04:14.843Z,30.59
2022-12-14T06:09:36.787Z,30.13
2022-12-14T06:14:58.506Z,29.73
2022-12-14T06:20:20.350Z,29.40
2022-12-14T06:25:42.088Z,28.77
2022-12-14T06:31:05.183Z,28.51
2022-12-14T06:36:29.357Z,28.00
2022-12-14T06:41:51.999Z,27.71
2022-12-14T06:47:13.763Z,27.39
2022-12-14T06:52:37.609Z,27.30
2022-12-14T06:57:59.451Z,27.61
2022-12-14T07:03:21.183Z,27.57
2022-12-14T07:08:43.393Z,27.64
2022-12-14T07:14:06.400Z,27.86
2022-12-14T07:19:28.170Z,28.11
2022-12-14T07:24:50.161Z,28.55
2022-12-14T07:30:12.156Z,28.61
2022-12-14T07:35:33.933Z,28.88
2022-12-14T07:41:02.128Z,28.33
2022-12-14T07:46:26.338Z,28.60
2022-12-14T07:51:48.194Z,28.08
2022-12-14T07:57:09.938Z,27.47
2022-12-14T08:02:31.728Z,27.38
2022-12-14T08:07:53.441Z,27.02
2022-12-14T08:13:15.124Z,26.76
2022-12-14T08:18:37.095Z,26.30
2022-12-14T08:23:59.358Z,26.45
2022-12-14T08:29:22.520Z,26.57
2022-12-14T08:34:44.243Z,26.42
2022-12-14T08:40:06.591Z,26.53
2022-12-14T08:45:28.857Z,26.73
2022-12-14T08:50:51.324Z,26.68
2022-12-14T08:56:15.611Z,27.24
2022-12-14T09:01:37.482Z,27.01
2022-12-14T09:06:59.231Z,27.44
2022-12-14T09:12:21.176Z,27.44
2022-12-14T09:17:42.960Z,27.43
2022-12-14T09:23:04.655Z,27.50
2022-12-14T09:28:28.000Z,27.96
2022-12-14T09:33:49.992Z,27.76
2022-12-14T09:39:15.007Z,27.91
2022-12-14T09:44:59.042Z,27.14
2022-12-14T09:50:22.495Z,27.18
2022-12-14T09:55:53.006Z,26.73
2022-12-14T10:01:43.913Z,26.62
2022-12-14T10:07:26.838Z,27.29
2022-12-14T10:13:16.704Z,27.16
2022-12-14T10:19:12.779Z,27.01
2022-12-14T10:24:41.866Z,27.41
2022-12-14T10:30:30.147Z,27.33
2022-12-14T10:36:00.401Z,27.63
2022-12-14T10:41:22.057Z,27.94
2022-12-14T10:47:01.898Z,27.81
2022-12-14T10:52:28.345Z,28.64
2022-12-14T10:57:50.363Z,28.89
2022-12-14T11:08:48.038Z,29.70
2022-12-14T11:14:16.325Z,29.81
2022-12-14T11:19:38.078Z,29.70
2022-12-14T11:24:59.766Z,30.04
2022-12-14T11:30:21.632Z,30.36
2022-12-14T11:35:51.685Z,30.18
2022-12-14T11:41:21.314Z,29.65
2022-12-14T11:46:57.984Z,29.18
2022-12-14T11:52:23.093Z,28.96
2022-12-14T11:57:53.611Z,28.50
2022-12-14T12:03:24.424Z,28.05
2022-12-14T12:08:46.849Z,27.91
2022-12-14T12:14:35.000Z,27.64
2022-12-14T12:19:57.867Z,27.63
2022-12-14T12:25:28.504Z,27.88
2022-12-14T12:30:59.377Z,28.25
2022-12-14T12:36:24.246Z,28.38
2022-12-14T12:41:52.912Z,28.55
2022-12-14T12:47:28.226Z,28.75
2022-12-14T12:53:25.239Z,29.27
2022-12-14T12:58:52.975Z,29.07
2022-12-14T13:04:46.542Z,29.68
2022-12-14T13:10:22.796Z,29.38
2022-12-14T13:15:51.266Z,29.79
2022-12-14T13:21:33.162Z,29.49
2022-12-14T13:27:05.315Z,29.65
2022-12-14T13:33:09.132Z,29.30
2022-12-14T13:39:00.664Z,30.18
2022-12-14T13:45:00.703Z,31.36
2022-12-14T13:50:37.350Z,32.13
2022-12-14T13:56:02.412Z,32.23
2022-12-14T14:01:49.002Z,32.75
2022-12-14T14:07:22.717Z,32.75
2022-12-14T14:12:45.214Z,33.30
2022-12-14T14:18:18.054Z,33.63
2022-12-14T14:24:06.668Z,34.55
2022-12-14T14:29:30.257Z,34.85
2022-12-14T14:34:52.294Z,35.23
2022-12-14T14:40:23.784Z,35.50
2022-12-14T14:45:56.598Z,35.42
2022-12-14T14:51:28.550Z,35.44
2022-12-14T14:56:51.628Z,34.28
2022-12-14T15:02:30.234Z,34.22
2022-12-14T15:07:55.076Z,34.14
2022-12-14T15:13:30.005Z,34.26
2022-12-14T15:18:52.094Z,34.08
2022-12-14T15:24:14.766Z,34.03
2022-12-14T15:29:36.680Z,34.21
2022-12-14T15:35:05.146Z,34.44
2022-12-14T15:40:32.709Z,34.25
2022-12-14T15:46:03.131Z,34.22
2022-12-14T15:51:32.864Z,34.22
2022-12-14T15:56:57.108Z,34.26
2022-12-14T16:02:27.891Z,33.89
2022-12-14T16:07:56.294Z,33.91
2022-12-14T16:13:25.952Z,34.12
2022-12-14T16:18:51.244Z,33.57
2022-12-14T16:24:24.508Z,33.86
2022-12-14T16:30:08.340Z,34.03
2022-12-14T16:35:34.179Z,34.11
2022-12-14T16:41:01.422Z,35.06
2022-12-14T16:46:23.310Z,35.24
2022-12-14T16:52:06.439Z,34.88
2022-12-14T16:57:27.537Z,34.37
2022-12-14T17:03:01.124Z,34.32
2022-12-14T17:08:23.262Z,34.46
2022-12-14T17:13:44.939Z,34.07
2022-12-14T17:19:24.171Z,34.34
2022-12-14T17:24:46.082Z,33.98
2022-12-14T17:30:18.586Z,34.13
2022-12-14T17:35:40.743Z,34.27
2022-12-14T17:41:02.602Z,34.34
2022-12-14T17:46:25.417Z,34.87
2022-12-14T17:51:47.303Z,34.60
2022-12-14T17:57:20.406Z,35.06
2022-12-14T18:02:42.977Z,34.97
2022-12-14T18:08:05.132Z,34.98
2022-12-14T18:13:28.881Z,34.73
2022-12-14T18:18:54.119Z,34.84
2022-12-14T18:24:16.313Z,34.63
2022-12-14T18:29:39.778Z,34.46
2022-12-14T18:35:01.700Z,33.82
2022-12-14T18:40:26.337Z,33.90
2022-12-14T18:45:48.247Z,33.66
2022-12-14T18:51:15.464Z,33.09
2022-12-14T18:56:37.250Z,33.17
2022-12-14T19:01:59.449Z,33.41
2022-12-14T19:07:21.713Z,32.96
2022-12-14T19:12:44.068Z,33.35
2022-12-14T19:18:05.964Z,32.87
2022-12-14T19:23:28.973Z,33.25
2022-12-14T19:28:50.910Z,33.18
2022-12-14T19:34:13.333Z,33.52
2022-12-14T19:39:35.182Z,33.56
2022-12-14T19:44:56.910Z,33.70
2022-12-14T19:50:18.754Z,33.93
2022-12-14T19:55:40.475Z,33.83
2022-12-14T20:01:02.327Z,34.23
2022-12-14T20:06:25.209Z,34.65
2022-12-14T20:11:47.081Z,34.58
2022-12-14T20:17:11.907Z,34.60
2022-12-14T20:22:33.832Z,34.96
2022-12-14T20:27:55.600Z,35.02
2022-12-14T20:33:17.291Z,35.37
2022-12-14T20:38:39.287Z,35.53
2022-12-14T20:44:02.426Z,35.43
2022-12-14T20:49:29.642Z,35.17
2022-12-14T20:54:51.660Z,34.90
2022-12-14T21:00:13.781Z,34.93
2022-12-14T21:05:41.163Z,34.88
2022-12-14T21:11:23.823Z,34.78
2022-12-14T21:16:45.937Z,34.97
2022-12-14T21:22:10.189Z,34.83
2022-12-14T21:27:32.355Z,34.96
2022-12-14T21:32:54.067Z,35.14
2022-12-14T21:38:15.773Z,35.28
2022-12-14T21:43:37.490Z,35.32
2022-12-14T21:48:59.654Z,35.48
2022-12-14T21:54:21.720Z,35.37
2022-12-14T21:59:47.305Z,35.21
2022-12-14T22:05:09.379Z,35.61
2022-12-14T22:10:31.122Z,35.34
2022-12-14T22:15:52.775Z,35.10
2022-12-14T22:21:14.708Z,35.24
2022-12-14T22:26:37.746Z,35.32
2022-12-14T22:31:59.493Z,35.53
2022-12-14T22:37:22.028Z,35.55
2022-12-14T22:42:43.910Z,35.39
2022-12-14T22:48:05.932Z,35.57
2022-12-14T22:53:28.901Z,35.79
2022-12-14T22:59:20.549Z,35.77
2022-12-14T23:04:42.210Z,35.49
2022-12-14T23:10:23.623Z,35.69
2022-12-14T23:16:03.726Z,35.86
2022-12-14T23:21:43.952Z,35.68
2022-12-14T23:27:24.047Z,35.58
2022-12-14T23:33:04.096Z,35.75
2022-12-14T23:38:44.621Z,35.51
2022-12-14T23:44:25.054Z,35.73
2022-12-14T23:50:05.156Z,35.89
2022-12-14T23:55:45.680Z,35.55
